Time;durP1;ratioP1;P1;durP2;ratioP2;P2;SDS_P1;SDS_P2;PMS_P1;PMS_P2;Temp;Humidity;BMP_temperature;BMP_pressure;BME280_temperature;BME280_humidity;BME280_pressure;Samples;Min_cycle;Max_cycle;Signal;HPM_P1;HPM_P2
2023/03/09 05:11:53;;;;;;;17.20;11.67;;;18.90;41.40;;;;;;5109345;27;20543;-70
2023/03/09 05:14:24;;;;;;;16.27;9.30;;;11.20;29.70;;;;;;5109494;28;20513;-68
2023/03/09 05:16:53;;;;;;;12.23;7.87;;;5.60;36.00;;;;;;5108459;28;20256;-73
2023/03/09 05:19:25;;;;;;;9.10;7.63;;;2.00;42.00;;;;;;5108321;28;20686;-70
2023/03/09 05:21:57;;;;;;;12.67;6.93;;;0.10;46.70;;;;;;5108029;28;20199;-69
2023/03/09 05:24:27;;;;;;;11.83;7.77;;;-1.20;50.00;;;;;;5107960;28;20200;-75
2023/03/09 05:26:58;;;;;;;11.00;7.27;;;-2.00;52.40;;;;;;5108091;28;20188;-71
2023/03/09 05:29:31;;;;;;;13.57;8.20;;;-2.60;54.30;;;;;;5107817;28;20264;-73
2023/03/09 05:32:00;;;;;;;10.17;7.07;;;-3.00;55.80;;;;;;5107733;28;20311;-68
2023/03/09 05:34:32;;;;;;;10.23;6.67;;;-3.30;57.00;;;;;;5107841;28;20744;-68
2023/03/09 05:37:01;;;;;;;11.37;7.33;;;-3.60;58.50;;;;;;5107558;28;20200;-75
2023/03/09 05:39:31;;;;;;;15.07;7.87;;;-3.80;59.30;;;;;;5107875;28;20556;-68
2023/03/09 05:42:02;;;;;;;9.97;7.03;;;-3.80;60.30;;;;;;5107931;28;20210;-73
2023/03/09 05:44:35;;;;;;;13.77;7.50;;;-3.90;61.60;;;;;;5107553;28;20199;-72
2023/03/09 05:47:05;;;;;;;11.57;7.67;;;-3.70;62.80;;;;;;5107668;28;20301;-69
2023/03/09 05:49:34;;;;;;;11.17;7.23;;;-3.50;62.60;;;;;;5108859;28;20255;-71
2023/03/09 05:52:03;;;;;;;8.63;6.50;;;-3.40;62.70;;;;;;5107218;28;20225;-72
2023/03/09 05:54:34;;;;;;;12.70;6.00;;;-3.40;63.00;;;;;;5107413;28;20717;-74
2023/03/09 05:57:11;;;;;;;8.47;5.90;;;-3.30;63.30;;;;;;5107438;28;20194;-69
2023/03/09 05:59:41;;;;;;;11.70;6.70;;;-3.30;63.90;;;;;;5107485;28;20211;-73
2023/03/09 06:02:10;;;;;;;10.03;7.17;;;-3.30;64.70;;;;;;5107445;28;20292;-73
2023/03/09 06:04:42;;;;;;;13.03;7.77;;;-3.30;65.00;;;;;;5107454;28;20655;-70
2023/03/09 06:07:12;;;;;;;14.87;8.50;;;-3.30;65.70;;;;;;5107169;28;20680;-70
2023/03/09 06:09:46;;;;;;;14.90;8.90;;;-3.30;66.60;;;;;;5106997;28;20249;-76
2023/03/09 06:12:21;;;;;;;18.73;10.17;;;-3.30;67.20;;;;;;5107183;28;20256;-69
2023/03/09 06:14:52;;;;;;;26.83;11.77;;;-3.30;67.60;;;;;;5107027;28;20294;-70
2023/03/09 06:17:25;;;;;;;21.53;12.80;;;-3.30;68.00;;;;;;5107009;28;20630;-72
2023/03/09 06:19:54;;;;;;;19.47;12.40;;;-3.30;68.70;;;;;;5107001;28;20191;-74
2023/03/09 06:22:24;;;;;;;17.57;11.30;;;-3.40;69.40;;;;;;5097556;28;20206;-70
2023/03/09 06:24:53;;;;;;;21.17;13.47;;;-3.40;70.10;;;;;;5094526;28;20297;-68
2023/03/09 06:27:23;;;;;;;25.30;15.87;;;-3.30;70.80;;;;;;5093143;28;20198;-70
2023/03/09 06:29:54;;;;;;;24.67;13.77;;;-3.30;71.20;;;;;;5094443;28;20188;-68
2023/03/09 06:32:23;;;;;;;23.80;13.10;;;-3.30;71.80;;;;;;5093003;28;20291;-67
2023/03/09 06:34:53;;;;;;;25.63;16.53;;;-3.20;72.10;;;;;;5093198;28;20277;-69
2023/03/09 06:37:23;;;;;;;31.03;16.47;;;-3.20;73.00;;;;;;5093102;28;20636;-74
2023/03/09 06:39:53;;;;;;;34.77;20.10;;;-3.20;73.30;;;;;;5092823;28;20291;-71
2023/03/09 06:42:23;;;;;;;33.63;20.87;;;-3.20;73.80;;;;;;5092845;28;20208;-72
2023/03/09 06:44:56;;;;;;;33.43;18.20;;;-3.20;74.60;;;;;;5092874;28;20294;-70
2023/03/09 06:47:29;;;;;;;21.27;14.73;;;-3.20;75.10;;;;;;5092924;28;20634;-69
2023/03/09 06:50:04;;;;;;;31.40;15.97;;;-3.20;75.80;;;;;;5092853;28;20195;-69
2023/03/09 06:52:36;;;;;;;33.60;19.30;;;-3.20;76.10;;;;;;5092515;28;20224;-77
2023/03/09 06:55:07;;;;;;;46.43;24.87;;;-3.10;77.20;;;;;;5092735;28;20209;-75
2023/03/09 06:57:49;;;;;;;52.20;27.37;;;-3.00;77.00;;;;;;5092835;28;20211;-73
2023/03/09 07:00:21;;;;;;;54.60;28.60;;;-2.90;76.70;;;;;;5092830;28;20202;-74
2023/03/09 07:02:54;;;;;;;61.80;32.53;;;-2.80;77.00;;;;;;5092494;28;20200;-73
2023/03/09 07:05:23;;;;;;;117.20;49.63;;;-2.70;77.40;;;;;;5093840;28;20273;-70
2023/03/09 07:07:52;;;;;;;112.03;51.20;;;-2.60;77.00;;;;;;5092166;28;20211;-70
2023/03/09 07:10:21;;;;;;;124.07;54.77;;;-2.60;77.30;;;;;;5093584;28;20232;-68
2023/03/09 07:12:51;;;;;;;136.33;55.53;;;-2.50;77.30;;;;;;5093662;28;20342;-75
2023/03/09 07:15:20;;;;;;;134.37;55.90;;;-2.40;76.80;;;;;;5093555;28;20662;-74
2023/03/09 07:17:49;;;;;;;128.67;55.10;;;-2.30;76.90;;;;;;5093415;28;20185;-71
2023/03/09 07:20:18;;;;;;;142.50;55.67;;;-2.20;77.20;;;;;;5093575;28;20192;-71
2023/03/09 07:22:47;;;;;;;143.43;59.87;;;-2.30;76.90;;;;;;5093237;28;20273;-69
2023/03/09 07:25:16;;;;;;;139.47;57.57;;;-2.20;77.20;;;;;;5093312;28;20212;-71
2023/03/09 07:27:45;;;;;;;138.73;60.73;;;-2.10;77.50;;;;;;5093229;28;20204;-66
2023/03/09 07:30:16;;;;;;;174.73;69.10;;;-2.10;77.50;;;;;;5093312;28;20181;-69
2023/03/09 07:32:45;;;;;;;180.53;75.53;;;-2.00;78.00;;;;;;5092901;28;20220;-69
2023/03/09 07:35:14;;;;;;;170.73;75.47;;;-1.80;78.50;;;;;;5092958;28;20200;-67
2023/03/09 07:37:43;;;;;;;169.53;73.03;;;-1.60;77.70;;;;;;5092126;28;20200;-70
2023/03/09 07:40:13;;;;;;;159.30;70.30;;;-1.50;77.60;;;;;;5093382;28;20224;-67
2023/03/09 07:42:42;;;;;;;164.90;71.13;;;-1.20;78.00;;;;;;5093185;28;20242;-67
2023/03/09 07:45:20;;;;;;;149.47;68.57;;;-1.00;77.00;;;;;;5091841;28;20200;-68
2023/03/09 07:47:49;;;;;;;145.20;66.13;;;-0.80;75.10;;;;;;5093180;28;20188;-69
2023/03/09 07:50:19;;;;;;;144.07;66.30;;;-0.80;75.00;;;;;;5092983;28;20218;-70
2023/03/09 07:52:48;;;;;;;147.73;68.00;;;-0.60;74.30;;;;;;5092681;28;20262;-70
2023/03/09 07:55:18;;;;;;;142.13;68.60;;;-0.60;75.40;;;;;;5092800;28;20185;-71
2023/03/09 07:57:46;;;;;;;163.33;78.33;;;-0.40;76.20;;;;;;5091337;28;20246;-74
2023/03/09 08:00:20;;;;;;;169.87;80.07;;;-0.30;75.10;;;;;;5092723;28;20253;-68
2023/03/09 08:02:51;;;;;;;188.40;87.53;;;-0.20;75.40;;;;;;5092647;28;20198;-69
2023/03/09 08:05:21;;;;;;;189.87;87.33;;;-0.20;74.90;;;;;;5092634;28;20204;-74
2023/03/09 08:07:51;;;;;;;274.50;129.27;;;0.00;75.60;;;;;;5092520;28;20588;-69
2023/03/09 08:10:20;;;;;;;230.97;110.07;;;0.10;92.70;;;;;;5092324;28;20227;-68
2023/03/09 08:12:50;;;;;;;235.03;114.87;;;0.40;93.40;;;;;;5092530;28;20277;-69
2023/03/09 08:15:20;;;;;;;213.07;104.00;;;0.70;95.70;;;;;;5091442;28;20300;-68
2023/03/09 08:17:50;;;;;;;211.97;102.00;;;1.10;93.70;;;;;;5092722;28;20267;-70
2023/03/09 08:20:19;;;;;;;182.77;85.20;;;1.30;92.20;;;;;;5092377;28;20203;-68
2023/03/09 08:22:48;;;;;;;178.37;82.70;;;1.60;90.50;;;;;;5092147;28;20204;-67
2023/03/09 08:25:18;;;;;;;130.93;65.10;;;1.80;88.40;;;;;;5090899;28;20204;-67
2023/03/09 08:27:47;;;;;;;113.37;61.00;;;1.90;80.20;;;;;;5092109;28;20192;-75
2023/03/09 08:30:20;;;;;;;115.67;55.13;;;1.90;79.60;;;;;;5092087;28;20197;-70
2023/03/09 08:32:52;;;;;;;109.17;52.30;;;1.90;79.40;;;;;;5092058;28;20224;-70
2023/03/09 08:35:23;;;;;;;122.30;57.20;;;1.90;79.00;;;;;;5091938;28;20666;-68
2023/03/09 08:37:52;;;;;;;91.20;48.40;;;1.90;84.30;;;;;;5091869;28;20188;-71
2023/03/09 08:40:21;;;;;;;89.53;46.00;;;2.10;77.30;;;;;;5091977;28;20532;-69
2023/03/09 08:42:50;;;;;;;95.50;48.23;;;2.30;76.90;;;;;;5091991;28;20192;-75
2023/03/09 08:45:19;;;;;;;95.37;51.60;;;2.40;72.40;;;;;;5091759;28;20562;-75
2023/03/09 08:47:50;;;;;;;112.00;56.10;;;2.40;71.60;;;;;;5091861;28;20200;-71
2023/03/09 08:50:19;;;;;;;96.13;49.63;;;2.40;71.80;;;;;;5092087;28;20604;-68
2023/03/09 08:52:48;;;;;;;87.90;46.70;;;2.50;70.10;;;;;;5091833;28;20248;-74
2023/03/09 08:55:17;;;;;;;112.37;58.40;;;2.70;68.90;;;;;;5091766;28;20211;-70
2023/03/09 08:57:46;;;;;;;105.70;50.60;;;2.90;68.40;;;;;;5091739;28;20196;-67
2023/03/09 09:00:16;;;;;;;93.27;48.00;;;2.90;66.10;;;;;;5091750;28;20662;-67
2023/03/09 09:02:45;;;;;;;90.80;48.20;;;3.00;65.70;;;;;;5091713;28;20223;-73
2023/03/09 09:05:15;;;;;;;96.70;51.13;;;3.00;65.40;;;;;;5091692;28;20670;-71
2023/03/09 09:07:44;;;;;;;110.47;50.53;;;3.20;66.60;;;;;;5091722;28;20688;-77
2023/03/09 09:10:14;;;;;;;111.67;59.33;;;3.40;66.60;;;;;;5091459;28;20224;-70
2023/03/09 09:13:02;;;;;;;81.23;43.77;;;3.60;65.30;;;;;;5091640;28;20219;-74
2023/03/09 09:15:31;;;;;;;80.60;43.73;;;3.60;60.00;;;;;;5091512;28;20196;-77
2023/03/09 09:17:59;;;;;;;63.47;33.73;;;3.80;60.20;;;;;;5091598;28;20201;-71
2023/03/09 09:20:30;;;;;;;55.47;27.90;;;4.00;57.90;;;;;;5091746;28;20196;-75
2023/03/09 09:22:59;;;;;;;43.33;25.10;;;4.30;56.30;;;;;;5090258;28;20570;-74
2023/03/09 09:25:28;;;;;;;67.90;38.63;;;4.60;56.40;;;;;;5091335;28;20277;-75
2023/03/09 09:27:57;;;;;;;30.90;18.30;;;4.50;54.80;;;;;;5091370;28;20670;-72
2023/03/09 09:30:25;;;;;;;22.17;13.73;;;4.80;55.20;;;;;;5091462;28;20605;-69
2023/03/09 09:32:54;;;;;;;20.23;10.73;;;5.00;53.30;;;;;;5091549;28;20305;-74
2023/03/09 09:35:23;;;;;;;22.07;12.93;;;4.90;51.30;;;;;;5091615;28;20710;-71
2023/03/09 09:37:54;;;;;;;22.17;13.63;;;4.90;50.60;;;;;;5091295;28;20196;-73
2023/03/09 09:40:23;;;;;;;10.73;7.57;;;5.10;50.20;;;;;;5091585;28;20224;-75
2023/03/09 09:42:53;;;;;;;12.70;7.97;;;5.00;49.70;;;;;;5091274;28;20748;-77
2023/03/09 09:45:29;;;;;;;7.63;5.67;;;5.20;49.20;;;;;;5091395;28;20200;-76
2023/03/09 09:48:01;;;;;;;7.60;6.80;;;5.60;47.70;;;;;;5091319;28;20293;-75
2023/03/09 09:50:50;;;;;;;6.37;5.30;;;6.00;46.90;;;;;;5091211;28;20200;-76
2023/03/09 09:53:33;;;;;;;8.73;6.80;;;7.20;45.40;;;;;;5091145;28;20212;-72
2023/03/09 09:56:03;;;;;;;8.67;7.37;;;8.90;43.90;;;;;;5091292;28;20201;-75
2023/03/09 09:58:39;;;;;;;6.77;4.50;;;10.20;42.10;;;;;;5094749;28;20194;-71
2023/03/09 10:01:18;;;;;;;6.73;5.73;;;11.10;39.50;;;;;;5094959;28;20204;-75
2023/03/09 10:03:51;;;;;;;8.37;5.37;;;11.30;38.10;;;;;;5095004;28;20214;-73
2023/03/09 10:06:22;;;;;;;5.87;4.87;;;10.50;38.00;;;;;;5094765;28;20209;-75
2023/03/09 10:08:56;;;;;;;6.70;5.60;;;10.00;39.00;;;;;;5093637;28;20203;-72
2023/03/09 10:11:28;;;;;;;9.47;6.67;;;9.70;39.70;;;;;;5094175;28;20245;-75
2023/03/09 10:14:00;;;;;;;7.47;6.80;;;9.50;39.60;;;;;;5093271;28;20241;-75
2023/03/09 10:16:35;;;;;;;12.67;8.50;;;10.00;38.60;;;;;;5094641;28;20192;-76
2023/03/09 10:19:10;;;;;;;12.57;8.23;;;11.10;37.90;;;;;;5094552;28;20226;-74
2023/03/09 10:21:47;;;;;;;8.30;4.90;;;10.60;36.80;;;;;;5094391;28;20191;-74
2023/03/09 10:24:22;;;;;;;18.83;10.27;;;10.30;38.10;;;;;;5094470;28;20214;-69
2023/03/09 10:26:58;;;;;;;16.40;11.13;;;10.90;37.20;;;;;;5094693;28;20295;-75
2023/03/09 10:29:46;;;;;;;29.03;16.40;;;11.00;36.80;;;;;;5094576;28;20203;-74
2023/03/09 10:32:21;;;;;;;24.33;15.53;;;11.20;35.90;;;;;;5094519;28;20223;-80
2023/03/09 10:34:59;;;;;;;5.37;4.50;;;12.50;36.00;;;;;;5094522;28;20279;-76
2023/03/09 10:37:33;;;;;;;20.73;13.27;;;13.70;34.30;;;;;;5094333;28;20188;-77
2023/03/09 10:40:15;;;;;;;11.13;8.30;;;14.80;33.10;;;;;;5094359;28;20275;-78
2023/03/09 10:42:47;;;;;;;10.83;9.00;;;15.00;31.40;;;;;;5094179;28;20673;-70
2023/03/09 10:45:23;;;;;;;7.50;6.73;;;15.10;31.20;;;;;;5094273;28;20215;-78
2023/03/09 10:47:55;;;;;;;6.80;6.20;;;16.20;30.30;;;;;;5094016;28;20576;-73
2023/03/09 10:50:26;;;;;;;5.33;4.53;;;15.90;29.80;;;;;;5094119;28;20550;-66
2023/03/09 10:52:56;;;;;;;5.93;4.40;;;15.90;30.00;;;;;;5093898;28;20231;-68
2023/03/09 10:55:39;;;;;;;6.10;5.27;;;16.80;29.60;;;;;;5093807;28;20206;-68
2023/03/09 10:58:21;;;;;;;4.67;3.97;;;18.30;28.60;;;;;;5093647;28;20202;-74
2023/03/09 11:00:57;;;;;;;6.03;4.03;;;17.70;28.00;;;;;;5093777;28;20206;-69
2023/03/09 11:03:32;;;;;;;4.30;2.97;;;16.20;28.30;;;;;;5093718;28;20198;-73
2023/03/09 11:06:29;;;;;;;4.40;3.23;;;14.40;28.90;;;;;;5093743;28;20231;-72
2023/03/09 11:09:05;;;;;;;3.67;2.70;;;13.90;30.20;;;;;;5093347;28;20220;-71
2023/03/09 11:11:47;;;;;;;6.47;5.57;;;14.20;29.90;;;;;;5093429;28;20235;-67
2023/03/09 11:14:25;;;;;;;6.60;5.97;;;15.40;29.40;;;;;;5093530;28;20234;-69
2023/03/09 11:16:56;;;;;;;5.40;4.93;;;16.00;28.30;;;;;;5093579;28;20198;-68
2023/03/09 11:19:26;;;;;;;12.37;9.73;;;17.10;27.70;;;;;;5093505;28;20204;-69
2023/03/09 11:22:03;;;;;;;7.37;4.77;;;17.30;27.10;;;;;;5093578;28;20612;-68
2023/03/09 11:24:38;;;;;;;16.97;10.77;;;17.60;26.60;;;;;;5093202;28;20195;-69
2023/03/09 11:27:16;;;;;;;50.60;35.30;;;17.70;27.30;;;;;;5093183;28;20242;-69
2023/03/09 11:29:54;;;;;;;40.37;30.47;;;16.80;28.90;;;;;;5093352;28;20240;-71
2023/03/09 11:32:23;;;;;;;20.17;14.60;;;15.90;30.00;;;;;;5093225;28;20203;-74
2023/03/09 11:34:53;;;;;;;40.70;23.97;;;15.90;29.20;;;;;;5093091;28;20230;-70
2023/03/09 11:37:28;;;;;;;151.37;77.33;;;15.40;31.00;;;;;;5093174;28;20204;-68
2023/03/09 11:39:59;;;;;;;136.17;78.00;;;15.00;31.70;;;;;;5093053;28;20288;-70
2023/03/09 11:42:37;;;;;;;98.93;59.60;;;14.40;33.10;;;;;;5092949;28;20649;-68
2023/03/09 11:45:13;;;;;;;28.77;19.97;;;13.80;33.50;;;;;;5092693;28;20663;-70
2023/03/09 11:47:45;;;;;;;11.80;9.50;;;13.20;33.70;;;;;;5092921;28;20209;-70
2023/03/09 11:50:19;;;;;;;11.70;9.07;;;12.50;33.20;;;;;;5093002;28;20542;-68
2023/03/09 11:52:52;;;;;;;10.90;7.87;;;13.70;33.30;;;;;;5092695;28;20195;-71
2023/03/09 11:55:27;;;;;;;7.40;5.80;;;14.90;31.20;;;;;;5092712;28;20193;-66
2023/03/09 11:58:01;;;;;;;9.07;3.63;;;14.40;31.20;;;;;;5092842;28;20217;-71
2023/03/09 12:00:34;;;;;;;5.03;3.73;;;14.40;30.90;;;;;;5092637;28;20289;-67
2023/03/09 12:03:10;;;;;;;5.80;3.10;;;13.90;31.50;;;;;;5092526;28;20278;-67
2023/03/09 12:05:46;;;;;;;7.47;4.43;;;12.80;32.90;;;;;;5092627;28;20787;-70
2023/03/09 12:08:20;;;;;;;8.43;3.57;;;12.20;34.30;;;;;;5092420;28;20196;-66
2023/03/09 12:10:53;;;;;;;9.97;5.60;;;11.90;35.00;;;;;;5092163;28;20232;-67
2023/03/09 12:13:30;;;;;;;7.53;3.93;;;12.10;35.50;;;;;;5092380;28;20206;-66
2023/03/09 12:16:04;;;;;;;7.93;5.07;;;12.60;35.00;;;;;;5092372;28;20635;-74
2023/03/09 12:18:37;;;;;;;6.77;3.27;;;12.80;34.00;;;;;;5092293;28;20598;-67
2023/03/09 12:21:08;;;;;;;5.83;3.57;;;10.90;35.20;;;;;;5091889;28;20189;-66
2023/03/09 12:23:50;;;;;;;3.67;2.70;;;9.80;37.60;;;;;;5092032;28;20597;-71
2023/03/09 12:26:29;;;;;;;15.13;13.53;;;9.60;38.80;;;;;;5092207;28;20220;-70
2023/03/09 12:29:17;;;;;;;12.70;6.73;;;10.20;38.70;;;;;;5091991;28;20193;-65
2023/03/09 12:32:24;;;;;;;18.63;14.40;;;10.40;38.90;;;;;;5092230;28;20631;-65
2023/03/09 12:34:54;;;;;;;14.53;9.50;;;10.10;38.30;;;;;;5049496;28;20206;-67
2023/03/09 12:37:55;;;;;;;7.90;7.10;;;11.60;38.00;;;;;;5049593;28;20210;-71
2023/03/09 12:40:34;;;;;;;9.23;8.13;;;12.60;34.80;;;;;;4990168;28;20217;-66
2023/03/09 12:43:54;;;;;;;8.03;4.73;;;12.00;35.00;;;;;;4990279;28;20238;-68
2023/03/09 12:47:10;;;;;;;5.93;3.30;;;11.70;35.70;;;;;;4990329;28;20699;-66
2023/03/09 12:49:43;;;;;;;20.03;11.93;;;12.40;34.30;;;;;;4990073;28;20227;-66
2023/03/09 12:52:38;;;;;;;12.50;8.37;;;13.30;34.90;;;;;;4974091;28;20552;-70
2023/03/09 12:55:16;;;;;;;14.67;10.27;;;15.20;32.80;;;;;;4989952;28;20208;-67
2023/03/09 12:57:46;;;;;;;11.23;9.63;;;16.50;31.10;;;;;;4990173;28;20217;-70
2023/03/09 13:00:30;;;;;;;15.67;10.23;;;16.20;30.50;;;;;;4989883;28;20218;-71
2023/03/09 13:03:07;;;;;;;8.03;5.20;;;15.20;31.10;;;;;;4990130;28;20206;-67
2023/03/09 13:05:47;;;;;;;9.67;6.33;;;14.70;31.00;;;;;;4989938;28;20262;-71
2023/03/09 13:08:33;;;;;;;23.47;11.93;;;13.80;32.80;;;;;;4989928;28;20286;-67
2023/03/09 13:11:31;;;;;;;12.57;7.67;;;12.50;34.00;;;;;;4990917;28;20625;-69
2023/03/09 13:14:01;;;;;;;25.17;16.17;;;12.10;35.40;;;;;;5049145;28;20204;-68
2023/03/09 13:16:51;;;;;;;17.40;10.03;;;12.10;35.00;;;;;;5053398;28;20225;-68
2023/03/09 13:19:53;;;;;;;4.73;4.33;;;11.80;34.80;;;;;;5091520;28;20199;-69
2023/03/09 13:22:41;;;;;;;6.50;5.90;;;10.50;35.00;;;;;;5091696;28;20275;-69
2023/03/09 13:25:36;;;;;;;7.30;5.07;;;10.30;36.60;;;;;;5091077;28;20223;-68
2023/03/09 13:28:17;;;;;;;11.40;8.13;;;11.20;35.80;;;;;;5091304;28;20207;-67
2023/03/09 13:30:48;;;;;;;7.03;4.87;;;11.70;34.60;;;;;;5091622;28;20251;-67
2023/03/09 13:33:25;;;;;;;7.40;5.33;;;11.90;34.00;;;;;;5094809;28;20255;-70
2023/03/09 13:35:57;;;;;;;6.37;3.70;;;11.00;34.50;;;;;;5094108;28;20569;-66
2023/03/09 13:38:32;;;;;;;8.47;6.63;;;10.10;35.90;;;;;;5095592;28;20220;-68
2023/03/09 13:41:05;;;;;;;18.57;11.30;;;9.70;37.60;;;;;;5095275;28;20680;-70
2023/03/09 13:43:37;;;;;;;18.23;9.77;;;9.50;37.90;;;;;;5095257;28;20220;-69
2023/03/09 13:46:16;;;;;;;21.93;17.50;;;9.20;38.30;;;;;;5095191;28;20595;-67
2023/03/09 13:48:49;;;;;;;19.23;14.00;;;9.70;38.00;;;;;;5095369;28;20192;-68
2023/03/09 13:51:33;;;;;;;14.60;10.90;;;8.70;37.90;;;;;;5095421;28;20228;-66
2023/03/09 13:54:03;;;;;;;8.83;6.37;;;9.80;37.60;;;;;;5094829;28;20659;-68
2023/03/09 13:56:32;;;;;;;15.17;7.93;;;11.00;35.70;;;;;;5095172;28;20202;-69
2023/03/09 13:59:04;;;;;;;15.57;13.50;;;10.50;34.60;;;;;;5094956;28;20198;-68
2023/03/09 14:01:33;;;;;;;8.50;4.93;;;10.50;35.50;;;;;;5094928;28;20208;-69
2023/03/09 14:04:02;;;;;;;9.57;3.67;;;10.70;35.00;;;;;;5094806;28;20210;-66
2023/03/09 14:06:33;;;;;;;9.37;4.97;;;9.60;34.80;;;;;;5094828;28;20633;-68
2023/03/09 14:09:30;;;;;;;15.87;9.20;;;9.70;35.30;;;;;;5094225;28;20298;-67
2023/03/09 14:11:59;;;;;;;6.13;3.87;;;10.30;34.40;;;;;;5094636;28;20206;-69
2023/03/09 14:14:29;;;;;;;11.97;7.83;;;8.20;35.80;;;;;;5094738;28;20261;-68
2023/03/09 14:16:58;;;;;;;23.40;17.07;;;8.20;36.00;;;;;;5094447;28;20677;-68
2023/03/09 14:19:29;;;;;;;11.23;7.93;;;8.00;35.40;;;;;;5094451;28;20190;-67
2023/03/09 14:22:00;;;;;;;11.17;5.70;;;8.10;37.40;;;;;;5094279;28;20201;-67
2023/03/09 14:24:33;;;;;;;23.60;15.57;;;7.50;37.90;;;;;;5094248;28;20205;-70
2023/03/09 14:27:24;;;;;;;20.23;13.80;;;7.30;39.00;;;;;;5094294;28;20222;-67
2023/03/09 14:29:54;;;;;;;12.03;9.30;;;7.10;39.40;;;;;;5094085;28;20711;-67
2023/03/09 14:32:28;;;;;;;24.13;14.43;;;7.80;40.10;;;;;;5094249;28;20193;-68
2023/03/09 14:34:59;;;;;;;16.00;11.13;;;7.50;39.80;;;;;;5094362;28;20196;-70
2023/03/09 14:37:30;;;;;;;16.50;11.00;;;7.60;40.80;;;;;;5094148;28;20196;-68
2023/03/09 14:40:01;;;;;;;7.03;4.23;;;7.80;40.20;;;;;;5094033;28;20563;-68
2023/03/09 14:42:32;;;;;;;7.70;4.17;;;7.00;38.70;;;;;;5093644;28;20203;-68
2023/03/09 14:45:21;;;;;;;7.57;5.00;;;6.30;39.50;;;;;;5093905;28;20733;-68
2023/03/09 14:47:56;;;;;;;21.63;12.17;;;6.40;40.20;;;;;;5094067;28;20191;-71
2023/03/09 14:50:26;;;;;;;9.20;7.03;;;6.90;40.40;;;;;;5093999;28;20199;-69
2023/03/09 14:52:55;;;;;;;10.93;7.23;;;6.20;39.80;;;;;;5093899;28;20199;-68
2023/03/09 14:55:25;;;;;;;7.57;6.40;;;6.50;40.30;;;;;;5093714;28;20204;-68
2023/03/09 14:57:54;;;;;;;22.43;14.90;;;6.70;40.20;;;;;;5093651;28;20198;-69
2023/03/09 15:00:25;;;;;;;16.27;9.03;;;6.70;40.40;;;;;;5093778;28;20194;-69
2023/03/09 15:02:54;;;;;;;33.40;16.80;;;6.30;40.20;;;;;;5092342;28;20210;-68
2023/03/09 15:05:25;;;;;;;10.73;6.33;;;6.50;41.00;;;;;;5093495;28;20256;-68
2023/03/09 15:07:54;;;;;;;16.10;11.00;;;6.10;40.90;;;;;;5093715;28;20256;-67
2023/03/09 15:10:25;;;;;;;11.07;7.20;;;6.30;41.00;;;;;;5093159;28;20241;-66
2023/03/09 15:12:54;;;;;;;45.33;28.80;;;6.20;41.00;;;;;;5093599;28;20190;-67
2023/03/09 15:15:25;;;;;;;25.77;16.13;;;6.30;41.30;;;;;;5093505;28;20217;-71
2023/03/09 15:17:56;;;;;;;17.93;11.67;;;6.40;41.20;;;;;;5093685;28;20730;-66
2023/03/09 15:20:26;;;;;;;13.23;6.67;;;6.30;40.50;;;;;;5093609;28;20201;-70
2023/03/09 15:23:11;;;;;;;10.30;6.80;;;6.30;41.00;;;;;;5093661;28;20193;-67
2023/03/09 15:25:43;;;;;;;8.40;5.60;;;6.40;41.20;;;;;;5093016;28;20233;-68
2023/03/09 15:28:12;;;;;;;17.30;12.97;;;6.50;41.20;;;;;;5093327;28;20215;-74
2023/03/09 15:30:41;;;;;;;19.33;10.47;;;5.70;41.20;;;;;;5093321;28;20283;-69
2023/03/09 15:33:13;;;;;;;14.87;8.50;;;5.90;42.30;;;;;;5093323;28;20218;-71
2023/03/09 15:35:42;;;;;;;16.63;9.80;;;5.90;42.50;;;;;;5093111;28;20216;-69
2023/03/09 15:38:11;;;;;;;14.27;8.57;;;5.90;42.70;;;;;;5093178;28;20280;-68
2023/03/09 15:40:45;;;;;;;15.07;7.60;;;5.80;42.70;;;;;;5092793;28;20558;-69
2023/03/09 15:43:14;;;;;;;15.50;8.10;;;5.40;43.10;;;;;;5093096;28;20204;-73
2023/03/09 15:45:43;;;;;;;15.10;7.30;;;5.50;43.60;;;;;;5092834;28;20217;-68
2023/03/09 15:48:12;;;;;;;11.93;7.30;;;5.50;43.90;;;;;;5092850;28;20189;-66
2023/03/09 15:50:41;;;;;;;16.00;7.57;;;5.30;44.00;;;;;;5092846;28;20197;-71
2023/03/09 15:53:10;;;;;;;15.27;9.00;;;5.40;44.40;;;;;;5092760;28;20207;-69
2023/03/09 15:55:39;;;;;;;18.10;8.23;;;5.20;44.40;;;;;;5091957;28;20658;-66
2023/03/09 15:58:09;;;;;;;33.67;18.97;;;4.60;44.90;;;;;;5092755;28;20654;-70
2023/03/09 16:00:38;;;;;;;33.63;17.60;;;4.60;45.80;;;;;;5092653;28;20242;-68
2023/03/09 16:03:07;;;;;;;34.57;18.77;;;4.60;45.70;;;;;;5092665;28;20192;-69
2023/03/09 16:05:38;;;;;;;43.57;18.40;;;4.90;45.90;;;;;;5092479;28;20233;-69
2023/03/09 16:08:07;;;;;;;47.30;25.50;;;4.60;46.10;;;;;;5092514;28;20539;-69
2023/03/09 16:10:36;;;;;;;36.13;20.13;;;4.60;46.50;;;;;;5092207;28;20252;-70
2023/03/09 16:13:05;;;;;;;46.13;27.33;;;4.50;46.30;;;;;;5092504;28;20192;-67
2023/03/09 16:15:35;;;;;;;38.63;19.50;;;4.60;46.40;;;;;;5092309;28;20670;-68
2023/03/09 16:18:04;;;;;;;42.67;24.30;;;4.50;46.40;;;;;;5092449;28;20199;-67
2023/03/09 16:20:33;;;;;;;41.83;21.57;;;4.20;46.70;;;;;;5092250;28;20272;-68
2023/03/09 16:23:02;;;;;;;30.30;16.70;;;4.10;46.90;;;;;;5092478;28;20200;-70
2023/03/09 16:25:31;;;;;;;42.43;23.43;;;4.00;46.90;;;;;;5112299;28;20322;-69
2023/03/09 16:28:00;;;;;;;35.57;21.07;;;4.20;47.20;;;;;;5112479;28;20327;-69
2023/03/09 16:30:30;;;;;;;32.10;19.50;;;4.20;46.90;;;;;;5112575;28;20198;-66
2023/03/09 16:33:02;;;;;;;37.90;19.37;;;4.30;47.00;;;;;;5112287;28;20557;-67
2023/03/09 16:35:33;;;;;;;34.33;13.77;;;4.40;47.00;;;;;;5112353;28;20198;-68
2023/03/09 16:38:03;;;;;;;49.33;24.17;;;4.40;46.80;;;;;;5112344;28;20200;-67
2023/03/09 16:40:34;;;;;;;49.50;23.93;;;4.20;47.20;;;;;;5112358;28;20223;-66
2023/03/09 16:43:02;;;;;;;111.67;48.83;;;4.00;47.60;;;;;;5112202;28;20247;-71
2023/03/09 16:45:31;;;;;;;46.07;20.40;;;3.80;48.00;;;;;;5112191;28;20204;-68
2023/03/09 16:48:02;;;;;;;51.60;26.20;;;3.60;48.70;;;;;;5112413;28;20191;-68
2023/03/09 16:50:31;;;;;;;41.07;23.70;;;3.60;49.00;;;;;;5112042;28;20537;-67
2023/03/09 16:53:00;;;;;;;37.00;21.00;;;3.60;48.90;;;;;;5112228;28;20208;-67
2023/03/09 16:55:28;;;;;;;50.27;28.77;;;3.50;49.20;;;;;;5112178;28;20217;-71
2023/03/09 16:57:58;;;;;;;44.93;28.63;;;3.60;49.10;;;;;;5112261;28;20207;-67
2023/03/09 17:00:27;;;;;;;28.93;19.17;;;3.80;49.20;;;;;;5112155;28;20200;-69
2023/03/09 17:02:56;;;;;;;26.37;15.30;;;3.90;48.90;;;;;;5111679;28;20200;-68
2023/03/09 17:05:26;;;;;;;23.40;13.50;;;3.90;48.90;;;;;;5111758;28;20187;-68
2023/03/09 17:07:55;;;;;;;32.97;16.37;;;3.90;49.30;;;;;;5111543;28;20219;-69
2023/03/09 17:10:26;;;;;;;36.43;16.50;;;3.70;49.20;;;;;;5111403;28;20314;-67
2023/03/09 17:12:55;;;;;;;37.70;19.03;;;3.30;50.10;;;;;;5111983;28;20196;-69
2023/03/09 17:15:23;;;;;;;37.37;18.80;;;3.20;50.60;;;;;;5111550;28;20241;-68
2023/03/09 17:17:52;;;;;;;48.93;33.13;;;3.10;50.80;;;;;;5111864;28;20248;-68
2023/03/09 17:20:21;;;;;;;39.03;24.93;;;3.20;50.60;;;;;;5111577;28;20199;-66
2023/03/09 17:22:52;;;;;;;89.80;28.73;;;3.00;50.70;;;;;;5111883;28;20248;-68
2023/03/09 17:25:22;;;;;;;50.10;22.07;;;3.10;51.30;;;;;;5111562;28;20579;-68
2023/03/09 17:27:52;;;;;;;73.23;26.83;;;3.00;50.90;;;;;;5111600;28;20629;-70
2023/03/09 17:30:23;;;;;;;78.27;28.40;;;3.20;51.30;;;;;;5111806;28;20192;-69
2023/03/09 17:33:04;;;;;;;88.27;29.43;;;3.30;51.10;;;;;;5111776;28;20201;-66
2023/03/09 17:35:33;;;;;;;106.53;36.50;;;3.40;51.10;;;;;;5111486;28;20218;-69
2023/03/09 17:38:03;;;;;;;70.10;22.87;;;3.50;50.90;;;;;;5111370;28;20226;-67
2023/03/09 17:40:32;;;;;;;93.00;31.87;;;3.50;50.70;;;;;;5111730;28;20556;-67
2023/03/09 17:43:01;;;;;;;151.57;55.13;;;3.50;50.60;;;;;;5111662;28;20223;-68
2023/03/09 17:45:30;;;;;;;37.53;23.47;;;3.50;50.60;;;;;;5111644;28;20207;-66
2023/03/09 17:47:59;;;;;;;31.27;21.57;;;3.20;50.20;;;;;;5111213;28;20216;-68
2023/03/09 17:50:27;;;;;;;37.27;24.57;;;2.90;50.90;;;;;;5111593;28;20660;-67
2023/03/09 17:52:56;;;;;;;43.57;22.53;;;2.70;51.50;;;;;;5111432;28;20729;-67
2023/03/09 17:55:27;;;;;;;38.27;26.23;;;2.70;52.20;;;;;;5111531;28;20256;-67
2023/03/09 17:57:55;;;;;;;38.30;23.00;;;2.60;52.50;;;;;;5111469;28;20201;-67
2023/03/09 18:00:25;;;;;;;28.90;19.47;;;2.70;52.80;;;;;;5111382;28;20188;-68
2023/03/09 18:02:54;;;;;;;42.17;23.80;;;2.90;52.80;;;;;;5111341;28;20688;-70
2023/03/09 18:05:24;;;;;;;41.93;27.50;;;2.80;53.00;;;;;;5111139;28;20592;-66
2023/03/09 18:07:53;;;;;;;41.73;23.53;;;2.80;53.30;;;;;;5111258;28;20325;-73
2023/03/09 18:10:22;;;;;;;45.30;22.87;;;2.60;53.50;;;;;;5110882;28;20712;-67
2023/03/09 18:12:53;;;;;;;47.63;26.83;;;2.50;54.10;;;;;;5111349;28;20251;-69
2023/03/09 18:15:24;;;;;;;43.17;23.50;;;2.50;54.30;;;;;;5111213;28;20218;-71